• Join FlightAware (Why Join?)
  • Login
  • US Flag 
05:45AM EST


 

Airport Tracker/Info


-or-


 

Live Flight TrackerFlight Track Log ✈ UAL395 ✈ 19-Jun-2014 ✈ KORD - KSAN

Flight Track Log - Related Links

Times and Time Zones

All times are in EDT time to prevent confusion due to time zone crossing. See the UAL395 flight status page for this flight to view local times or setup timezone preferences in your user account.

Time Position Orientation Groundspeed Altitude Reporting Facility
EDT Latitude Longitude Course Direction KTS MPH feet Rate Location/Type
07:59PM 41.9667 -87.8667 180° South 182 209 1,800  Level Chicago TRACON
08:00PM 41.8833 -87.8667 180° South 232 267 4,500 2,400 Climbing Chicago TRACON
08:01PM 41.8178 -87.8250 155° Southeast 271 312 7,100 2,520 Climbing Chicago Center
08:02PM 41.7447 -87.7831 157° South 281 323 9,900 2,700 Climbing Chicago Center
08:03PM 41.6600 -87.7356 157° South 301 346 12,800 2,580 Climbing Chicago Center
08:04PM 41.5772 -87.6892 157° South 315 362 15,300 2,100 Climbing Chicago Center
08:05PM 41.4986 -87.6283 150° Southeast 329 379 17,200 1,680 Climbing Chicago Center
08:06PM 41.4167 -87.5569 147° Southeast 336 387 18,800 1,680 Climbing Chicago Center
08:07PM 41.3364 -87.4761 143° Southeast 357 411 20,700 1,740 Climbing Chicago Center
08:08PM 41.2544 -87.3947 143° Southeast 362 417 22,500 1,500 Climbing Chicago Center
08:10PM 41.1739 -87.3103 142° Southeast 368 423 23,900 1,380 Climbing Chicago Center
08:11PM 41.0767 -87.2636 160° South 377 434 25,400 1,260 Climbing Chicago Center
08:12PM 40.9736 -87.2781 186° South 372 428 26,600 1,140 Climbing Chicago Center
08:13PM 40.8639 -87.3603 210° Southwest 373 429 27,800 1,080 Climbing Chicago Center
08:14PM 40.7697 -87.4289 209° Southwest 383 441 28,900 900 Climbing Chicago Center
08:15PM 40.6986 -87.5364 229° Southwest 384 442 29,700 480 Climbing Chicago Center
08:16PM 40.6267 -87.6556 232° Southwest 408 470 30,000 120 Climbing Chicago Center
08:17PM 40.5503 -87.7850 232° Southwest 438 504 30,000 120 Level Chicago Center
08:18PM 40.4717 -87.9158 232° Southwest 451 519 30,300 720 Climbing Chicago Center
08:19PM 40.3894 -88.0497 231° Southwest 462 532 31,500 780 Climbing Chicago Center
08:20PM 40.3092 -88.1864 232° Southwest 470 541 32,000 240 Climbing Chicago Center
08:21PM 40.2131 -88.3425 231° Southwest 464 534 32,000 180 Level Chicago Center
08:22PM 40.1447 -88.4542 231° Southwest 463 533 32,400 900 Climbing Chicago Center
08:23PM 40.0469 -88.6131 231° Southwest 465 535 33,900 1,200 Climbing Chicago Center
08:24PM 39.9672 -88.7433 231° Southwest 462 532 34,900 900 Climbing Chicago Center
08:25PM 39.8850 -88.8744 231° Southwest 462 532 35,800 480 Climbing Chicago Center
08:26PM 39.8042 -89.0042 231° Southwest 461 531 36,000 60 Climbing Chicago Center
08:27PM 39.7233 -89.1317 231° Southwest 458 527 36,000  Level Chicago Center
08:28PM 39.6450 -89.2572 231° Southwest 445 512 36,000  Level Chicago Center
08:29PM 39.5633 -89.3853 230° Southwest 450 518 36,000  Level Kansas City Center
08:30PM 39.4847 -89.5128 231° Southwest 452 520 36,000  Level Kansas City Center
08:31PM 39.3872 -89.6667 231° Southwest 456 525 36,000  Level Kansas City Center
08:32PM 39.3072 -89.7931 231° Southwest 457 526 36,000  Level Kansas City Center
08:33PM 39.2236 -89.9206 230° Southwest 460 529 36,000  Level Kansas City Center
08:34PM 39.1383 -90.0544 231° Southwest 471 542 36,000  Level Kansas City Center
08:35PM 39.0536 -90.1858 230° Southwest 472 543 36,000  Level Kansas City Center
08:36PM 38.9564 -90.3381 231° Southwest 473 544 36,000  Level Kansas City Center
08:37PM 38.8769 -90.4606 230° Southwest 472 543 36,000  Level Kansas City Center
08:38PM 38.8417 -90.6189 254° West 470 541 36,000  Level Kansas City Center
08:39PM 38.8222 -90.7811 261° West 464 534 36,000  Level Kansas City Center
08:40PM 38.8019 -90.9403 261° West 457 526 36,000  Level Kansas City Center
08:41PM 38.7767 -91.1344 261° West 461 531 36,000  Level Kansas City Center
08:43PM 38.7547 -91.2956 260° West 461 531 36,000  Level Kansas City Center
08:44PM 38.7328 -91.4558 260° West 460 529 36,000  Level Kansas City Center
08:45PM 38.7078 -91.6358 260° West 460 529 36,000  Level Kansas City Center
08:46PM 38.6881 -91.7881 261° West 441 507 36,000  Level Kansas City Center
08:47PM 38.6661 -91.9400 260° West 435 501 36,000  Level Kansas City Center
08:48PM 38.6447 -92.0939 260° West 437 503 36,000  Level Kansas City Center
08:49PM 38.6214 -92.2469 259° West 437 503 36,000  Level Kansas City Center
08:50PM 38.5972 -92.4022 259° West 443 510 36,000  Level Kansas City Center
08:51PM 38.5750 -92.5525 259° West 440 506 36,000  Level Kansas City Center
08:52PM 38.5489 -92.7353 260° West 439 505 36,000  Level Kansas City Center
08:53PM 38.5264 -92.8861 259° West 439 505 36,000  Level Kansas City Center
08:54PM 38.5033 -93.0350 259° West 437 503 36,000  Level Kansas City Center
08:55PM 38.4797 -93.1836 259° West 432 497 36,000  Level Kansas City Center
08:56PM 38.4567 -93.3331 259° West 432 497 36,000  Level Kansas City Center
08:57PM 38.4336 -93.4814 259° West 432 497 36,000  Level Kansas City Center
08:58PM 38.4058 -93.6592 259° West 429 494 36,000  Level Kansas City Center
08:59PM 38.3819 -93.8069 258° West 429 494 36,000  Level Kansas City Center
09:00PM 38.3597 -93.9533 259° West 427 491 36,000  Level Kansas City Center
09:01PM 38.3344 -94.1075 258° West 427 491 36,000  Level Kansas City Center
09:02PM 38.3100 -94.2558 258° West 427 491 36,000  Level Kansas City Center
09:03PM 38.2861 -94.4019 258° West 427 491 36,000  Level Kansas City Center
09:04PM 38.2617 -94.5508 258° West 427 491 36,000  Level Kansas City Center
09:05PM 38.2389 -94.7003 259° West 427 491 36,000  Level Kansas City Center
09:06PM 38.2156 -94.8478 259° West 427 491 36,000  Level Kansas City Center
09:07PM 38.1883 -95.0214 259° West 423 487 36,000  Level Kansas City Center
09:08PM 38.1625 -95.1719 258° West 429 494 36,000  Level Kansas City Center
09:09PM 38.1367 -95.3175 257° West 426 490 36,000  Level Kansas City Center
09:10PM 38.1122 -95.4619 258° West 424 488 36,000  Level Kansas City Center
09:11PM 38.0875 -95.6058 258° West 421 484 36,000  Level Kansas City Center
09:12PM 38.0625 -95.7494 258° West 420 483 36,000  Level Kansas City Center
09:13PM 38.0372 -95.8914 257° West 418 481 36,000  Level Kansas City Center
09:14PM 38.0094 -96.0619 258° West 413 475 36,000  Level Kansas City Center
09:16PM 37.9875 -96.1931 258° West 414 476 36,000  Level Kansas City Center
09:17PM 37.9639 -96.3358 258° West 414 476 36,000  Level Kansas City Center
09:18PM 37.9400 -96.4781 258° West 414 476 36,000  Level Kansas City Center
09:19PM 37.9164 -96.6236 258° West 419 482 36,000  Level Kansas City Center
09:20PM 37.8825 -96.7956 256° West 421 484 36,000  Level Kansas City Center
09:21PM 37.8489 -96.9381 253° West 422 486 36,000  Level Kansas City Center
09:22PM 37.8164 -97.0806 254° West 422 486 36,000  Level Kansas City Center
09:23PM 37.7839 -97.2228 254° West 422 486 36,000  Level Kansas City Center
09:24PM 37.7508 -97.3661 254° West 422 486 36,000 -60 Level Kansas City Center
09:25PM 37.7161 -97.5114 253° West 422 486 35,900 -60 Descending Kansas City Center
09:26PM 37.6836 -97.6511 254° West 420 483 35,900  Level Kansas City Center
09:27PM 37.6511 -97.7931 254° West 420 483 35,900  Level Kansas City Center
09:28PM 37.6181 -97.9350 254° West 420 483 36,000  Climbing Kansas City Center
09:29PM 37.5758 -98.1058 253° West 420 483 36,000  Level Kansas City Center
09:30PM 37.5433 -98.2458 254° West 420 483 36,000  Level Kansas City Center
09:31PM 37.5094 -98.3864 253° West 420 483 36,000  Level Kansas City Center
09:32PM 37.4756 -98.5261 253° West 420 483 36,000  Level Kansas City Center
09:33PM 37.4417 -98.6661 253° West 419 482 36,000  Level Kansas City Center
09:34PM 37.4075 -98.8053 253° West 419 482 36,000  Level Kansas City Center
09:35PM 37.3733 -98.9439 253° West 419 482 36,000  Level Kansas City Center
09:36PM 37.3386 -99.0811 252° West 418 481 36,000 -60 Level Kansas City Center
09:37PM 37.2972 -99.2450 252° West 414 476 35,900 -60 Descending Kansas City Center
09:38PM 37.2614 -99.3853 252° West 415 478 35,900  Level Kansas City Center
09:39PM 37.2231 -99.5325 252° West 415 478 36,000  Climbing Kansas City Center
09:40PM 37.1889 -99.6653 252° West 416 479 36,000  Level Kansas City Center
09:41PM 37.1556 -99.7986 253° West 416 479 36,000  Level Kansas City Center
09:42PM 37.1144 -99.9564 252° West 420 483 36,000  Level Kansas City Center
09:43PM 37.0800 -100.0914 252° West 422 486 36,000  Level Kansas City Center
09:44PM 37.0375 -100.2503 252° West 426 490 36,000  Level Kansas City Center
09:45PM 37.0017 -100.3869 252° West 426 490 36,000  Level Kansas City Center
09:46PM 36.9661 -100.5239 252° West 427 491 36,000  Level Kansas City Center
09:47PM 36.9242 -100.6833 252° West 428 493 36,000  Level Kansas City Center
09:48PM 36.8872 -100.8183 251° West 428 493 36,000  Level Kansas City Center
09:49PM 36.8464 -100.9744 252° West 427 491 36,000  Level Kansas City Center
09:50PM 36.8111 -101.1047 251° West 419 482 36,000  Level Kansas City Center
09:51PM 36.7711 -101.2533 251° West 410 472 36,000  Level Kansas City Center
09:52PM 36.7361 -101.3786 251° West 406 467 36,000  Level Kansas City Center
09:54PM 36.7028 -101.5028 252° West 401 461 36,000  Level Kansas City Center
09:55PM 36.6633 -101.6469 251° West 397 457 36,000  Level Kansas City Center
09:56PM 36.6183 -101.8111 251° West 395 455 36,000  Level Albuquerque Center
09:57PM 36.5797 -101.9478 251° West 395 455 36,000  Level Albuquerque Center
09:58PM 36.5436 -102.0767 251° West 395 455 36,000  Level Albuquerque Center
09:59PM 36.5072 -102.2042 250° West 395 455 36,000  Level Albuquerque Center
10:00PM 36.4711 -102.3342 251° West 395 455 36,000  Level Albuquerque Center
10:01PM 36.4325 -102.4647 250° West 399 459 36,000  Level Albuquerque Center
10:02PM 36.3886 -102.6203 251° West 401 461 36,000  Level Albuquerque Center
10:03PM 36.3503 -102.7506 250° West 401 461 36,000  Level Albuquerque Center
10:04PM 36.3133 -102.8811 251° West 401 461 36,000  Level Albuquerque Center
10:05PM 36.2786 -103.0031 251° West 402 463 36,000  Level Albuquerque Center
10:06PM 36.2342 -103.1564 250° West 402 463 36,000  Level Albuquerque Center
10:07PM 36.1942 -103.2908 250° West 409 471 36,000  Level Albuquerque Center
10:08PM 36.1567 -103.4244 251° West 410 472 36,000  Level Albuquerque Center
10:09PM 36.1169 -103.5569 250° West 410 472 36,000  Level Albuquerque Center
10:10PM 36.0772 -103.6908 250° West 410 472 36,000  Level Albuquerque Center
10:11PM 36.0378 -103.8236 250° West 410 472 36,000  Level Albuquerque Center
10:12PM 35.9961 -103.9567 249° West 410 472 36,000  Level Albuquerque Center
10:13PM 35.9550 -104.0936 250° West 416 479 36,000  Level Albuquerque Center
10:14PM 35.9133 -104.2306 249° West 420 483 36,000  Level Albuquerque Center
10:15PM 35.8644 -104.3919 250° West 425 489 36,000  Level Albuquerque Center
10:16PM 35.8217 -104.5317 249° West 430 495 36,000  Level Albuquerque Center
10:17PM 35.7781 -104.6717 249° West 434 499 36,000  Level Albuquerque Center
10:18PM 35.7347 -104.8125 249° West 435 501 36,000  Level Albuquerque Center
10:19PM 35.6908 -104.9539 249° West 437 503 36,000  Level Albuquerque Center
10:20PM 35.6447 -105.0953 248° West 439 505 36,000  Level Albuquerque Center
10:21PM 35.5997 -105.2372 249° West 441 507 36,000  Level Albuquerque Center
10:23PM 35.5547 -105.3794 249° West 442 509 36,000  Level Albuquerque Center
10:24PM 35.5103 -105.5208 249° West 442 509 36,000  Level Albuquerque Center
10:25PM 35.4636 -105.6667 249° West 442 509 36,000  Level Albuquerque Center
10:26PM 35.4178 -105.8061 248° West 442 509 36,000  Level Albuquerque Center
10:27PM 35.3719 -105.9525 249° West 436 502 36,000  Level Albuquerque Center
10:28PM 35.3281 -106.0858 248° West 436 502 36,000  Level Albuquerque Center
10:29PM 35.2844 -106.2250 249° West 435 501 36,000  Level Albuquerque Center
10:30PM 35.2400 -106.3625 248° West 434 499 36,000  Level Albuquerque Center
10:31PM 35.1950 -106.5000 248° West 435 501 36,000  Level Albuquerque Center
10:32PM 35.1425 -106.6642 249° West 435 501 36,000  Level Albuquerque Center
10:33PM 35.0933 -106.8033 247° West 440 506 36,000  Level Albuquerque Center
10:34PM 35.0469 -106.9461 248° West 434 499 36,000  Level Albuquerque Center
10:35PM 35.0019 -107.0819 248° West 433 498 36,000  Level Albuquerque Center
10:36PM 34.9564 -107.2181 248° West 434 499 36,000  Level Albuquerque Center
10:37PM 34.9078 -107.3642 248° West 434 499 36,000  Level Albuquerque Center
10:38PM 34.8614 -107.5006 248° West 436 502 36,000  Level Albuquerque Center
10:39PM 34.8142 -107.6361 247° West 441 507 36,000  Level Albuquerque Center
10:40PM 34.7689 -107.7725 248° West 441 507 36,000  Level Albuquerque Center
10:41PM 34.7225 -107.9078 247° West 438 504 36,000  Level Albuquerque Center
10:42PM 34.6761 -108.0444 248° West 438 504 36,000  Level Albuquerque Center
10:43PM 34.6239 -108.1911 247° West 438 504 36,000  Level Albuquerque Center
10:44PM 34.5792 -108.3231 248° West 438 504 36,000  Level Albuquerque Center
10:45PM 34.5342 -108.4514 247° West 438 504 36,000  Level Albuquerque Center
10:46PM 34.4819 -108.6019 247° West 435 501 36,000  Level Albuquerque Center
10:47PM 34.4286 -108.7511 247° West 435 501 36,000  Level Albuquerque Center
10:48PM 34.3819 -108.8819 247° West 435 501 36,000  Level Albuquerque Center
10:49PM 34.3353 -109.0144 247° West 440 506 36,000  Level Albuquerque Center
10:50PM 34.2811 -109.1658 247° West 446 513 36,000  Level Albuquerque Center
10:51PM 34.2317 -109.3042 247° West 447 514 36,000  Level Albuquerque Center
10:52PM 34.1828 -109.4394 246° West 452 520 36,000  Level Albuquerque Center
10:53PM 34.1253 -109.5978 246° West 456 525 36,000 -60 Level Albuquerque Center
10:54PM 34.0758 -109.7353 247° West 461 531 35,900 -540 Descending Albuquerque Center
10:55PM 34.0186 -109.8933 246° West 461 531 34,900 -960 Descending Albuquerque Center
10:56PM 33.9750 -110.0117 246° West 462 532 34,000 -480 Descending Albuquerque Center
10:57PM 33.9119 -110.1822 246° West 463 533 34,000  Level Albuquerque Center
10:58PM 33.8589 -110.3250 246° West 464 534 34,000  Level Albuquerque Center
10:59PM 33.8100 -110.4544 246° West 467 537 34,000  Level Albuquerque Center
11:00PM 33.7569 -110.5978 246° West 465 535 34,000  Level Albuquerque Center
11:01PM 33.7067 -110.7364 246° West 464 534 34,000  Level Albuquerque Center
11:02PM 33.6433 -110.9061 246° West 464 534 34,000  Level Albuquerque Center
11:03PM 33.5903 -111.0472 246° West 464 534 34,000  Level Albuquerque Center
11:04PM 33.5367 -111.1886 246° West 464 534 34,000  Level Albuquerque Center
11:05PM 33.4825 -111.3308 245° Southwest 464 534 34,000  Level Albuquerque Center
11:06PM 33.4272 -111.4728 245° Southwest 465 535 34,000  Level Albuquerque Center
11:08PM 33.3717 -111.6144 245° Southwest 466 536 34,000  Level Albuquerque Center
11:09PM 33.3167 -111.7589 246° West 471 542 34,000  Level Albuquerque Center
11:10PM 33.2614 -111.8992 245° Southwest 470 541 34,000  Level Albuquerque Center
11:11PM 33.2061 -112.0417 245° Southwest 469 540 34,000  Level Albuquerque Center
11:12PM 33.1503 -112.1833 245° Southwest 469 540 34,000 -60 Level Albuquerque Center
11:13PM 33.0908 -112.3347 245° Southwest 472 543 33,900 -60 Descending Albuquerque Center
11:14PM 33.0353 -112.4764 245° Southwest 472 543 33,900  Level Albuquerque Center
11:15PM 32.9789 -112.6175 245° Southwest 473 544 33,900  Level Albuquerque Center
11:16PM 32.9400 -112.7967 256° West 472 543 33,900  Level Albuquerque Center
11:17PM 32.9217 -112.9489 262° West 471 542 33,900  Level Albuquerque Center
11:18PM 32.9003 -113.0989 260° West 471 542 33,900  Level Albuquerque Center
11:19PM 32.8806 -113.2500 261° West 469 540 33,900  Level Albuquerque Center
11:20PM 32.8586 -113.4014 260° West 469 540 33,900  Level Albuquerque Center
11:21PM 32.8358 -113.5519 260° West 469 540 33,900  Level Albuquerque Center
11:22PM 32.8189 -113.6786 261° West 468 539 33,900  Level Los Angeles Center
11:23PM 32.7978 -113.8300 261° West 468 539 33,900  Level Los Angeles Center
11:24PM 32.7758 -114.0125 262° West 468 539 33,900  Level Los Angeles Center
11:25PM 32.7750 -114.1642 270° West 465 535 33,900  Level Los Angeles Center
11:26PM 32.7736 -114.3153 269° West 462 532 33,900  Level Los Angeles Center
11:27PM 32.7708 -114.4658 269° West 459 528 33,900  Level Los Angeles Center
11:28PM 32.7694 -114.6156 269° West 457 526 33,900  Level Los Angeles Center
11:29PM 32.7661 -114.7667 269° West 459 528 33,900 -480 Level Los Angeles Center
11:30PM 32.7622 -114.9161 268° West 457 526 33,000 -1,320 Descending Los Angeles Center
11:31PM 32.7600 -115.0992 269° West 460 529 31,200 -2,220 Descending Los Angeles Center
11:32PM 32.7553 -115.2511 268° West 462 532 28,500 -2,520 Descending Los Angeles Center
11:33PM 32.7531 -115.3972 269° West 451 519 26,000 -2,460 Descending Los Angeles Center
11:34PM 32.7494 -115.5403 268° West 439 505 23,500 -2,220 Descending Los Angeles Center
11:35PM 32.7536 -115.6817 272° West 435 501 21,500 -1,920 Descending Los Angeles Center
11:36PM 32.7569 -115.8194 272° West 423 487 19,600 -2,160 Descending Los Angeles Center
11:37PM 32.7611 -115.9767 272° West 403 464 17,100 -2,040 Descending Los Angeles Center
11:38PM 32.7636 -116.1053 271° West 395 455 15,300 -1,740 Descending Los Angeles Center
11:39PM 32.7667 -116.2319 272° West 388 447 13,600 -1,740 Descending Los Angeles Center
11:40PM 32.7586 -116.3503 265° West 371 427 11,900 -1,620 Descending Los Angeles Center
11:41PM 32.7406 -116.4597 259° West 346 398 10,300 -1,260 Descending Los Angeles Center
11:42PM 32.7258 -116.5578 260° West 319 367 9,300 -960 Descending Los Angeles Center
11:43PM 32.7131 -116.6486 261° West 296 341 8,400 -1,080 Descending Los Angeles Center
11:44PM 32.7097 -116.7400 268° West 284 327 7,100 -1,320 Descending Los Angeles Center
11:45PM 32.7053 -116.8328 267° West 284 327 5,800 -1,560 Descending Los Angeles Center
11:47PM 32.6833 -116.9500 257° West 261 300 3,800 -1,320 Descending Southern California TRACON
11:47PM 32.6833 -117.0000 270° West 191 220 3,200 -780 Descending Southern California TRACON
11:48PM 32.7000 -117.0667 287° West 187 215 2,400 -900 Descending Southern California TRACON
11:49PM 32.7167 -117.1167 292° West 149 171 1,400 -960 Descending Southern California TRACON
11:50PM 32.7333 -117.1500 301° West 130 150 500 -480 Descending Southern California TRACON
11:52PM 32.7353 -117.1958 273° West 150 173 400 -120 Descending Los Angeles Center